Time;durP1;ratioP1;P1;durP2;ratioP2;P2;SDS_P1;SDS_P2;PMS_P1;PMS_P2;Temp;Humidity;BMP_temperature;BMP_pressure;BME280_temperature;BME280_humidity;BME280_pressure;Samples;Min_cycle;Max_cycle;Signal;HPM_P1;HPM_P2
2023/08/02 00:00:16;;;;;;;3.60;1.85;;;;;;;24.83;50.90;99303.50;5113863;28;20198;-69
2023/08/02 00:02:44;;;;;;;3.20;1.98;;;;;;;24.83;51.00;99313.56;5113580;28;20052;-69
2023/08/02 00:05:13;;;;;;;3.33;1.90;;;;;;;24.82;51.19;99306.44;5113576;28;20055;-69
2023/08/02 00:07:41;;;;;;;3.42;2.08;;;;;;;24.81;51.10;99299.31;5113609;28;20075;-69
2023/08/02 00:10:11;;;;;;;3.33;1.90;;;;;;;24.80;51.14;99294.88;5113855;28;20195;-69
2023/08/02 00:12:39;;;;;;;3.97;1.95;;;;;;;24.80;51.22;99311.25;5113316;28;20381;-69
2023/08/02 00:15:08;;;;;;;3.92;2.10;;;;;;;24.79;51.12;99306.84;5113694;28;20454;-69
2023/08/02 00:17:36;;;;;;;3.40;2.00;;;;;;;24.77;51.00;99304.31;5113506;28;20048;-69
2023/08/02 00:20:08;;;;;;;3.20;1.95;;;;;;;24.76;51.35;99318.16;5113462;28;20050;-69
2023/08/02 00:22:36;;;;;;;4.15;2.10;;;;;;;24.76;51.20;99326.34;5113252;28;20063;-70
2023/08/02 00:25:05;;;;;;;3.13;1.83;;;;;;;24.75;51.03;99332.84;5113218;28;20043;-70
2023/08/02 00:27:43;;;;;;;3.45;2.05;;;;;;;24.75;51.34;99338.31;5113046;28;20047;-69
2023/08/02 00:30:12;;;;;;;4.22;2.22;;;;;;;24.74;51.11;99353.00;5113213;28;20061;-68
2023/08/02 00:32:44;;;;;;;3.92;1.90;;;;;;;24.72;51.34;99355.09;5113113;28;20069;-69
2023/08/02 00:35:12;;;;;;;3.27;2.00;;;;;;;24.72;51.23;99357.81;5113082;28;20051;-69
2023/08/02 00:37:41;;;;;;;3.42;1.92;;;;;;;24.71;51.24;99350.69;5112934;28;20760;-68
2023/08/02 00:40:14;;;;;;;3.83;2.30;;;;;;;24.73;51.18;99362.22;5112880;28;20492;-69
2023/08/02 00:42:43;;;;;;;3.65;2.17;;;;;;;24.70;51.34;99366.19;5112992;28;20047;-69
2023/08/02 00:45:12;;;;;;;3.22;1.83;;;;;;;24.71;51.49;99359.72;5112867;28;20131;-69
2023/08/02 00:47:40;;;;;;;3.17;1.90;;;;;;;24.69;51.32;99358.22;5112781;28;20104;-69
2023/08/02 00:50:09;;;;;;;3.97;2.17;;;;;;;24.69;51.56;99360.94;5112660;28;20039;-68
2023/08/02 00:52:37;;;;;;;2.65;1.83;;;;;;;24.67;51.74;99358.41;5112709;28;20039;-69
2023/08/02 00:55:06;;;;;;;3.28;2.00;;;;;;;24.67;51.35;99350.25;5112789;28;20040;-69
2023/08/02 00:57:35;;;;;;;3.30;2.00;;;;;;;24.66;51.37;99345.81;5112954;28;20043;-68
2023/08/02 01:00:05;;;;;;;3.40;2.00;;;;;;;24.66;51.61;99340.38;5112636;28;20043;-69
2023/08/02 01:02:36;;;;;;;3.53;2.20;;;;;;;24.65;51.63;99343.31;5112229;28;20083;-68
2023/08/02 01:05:05;;;;;;;4.38;2.33;;;;;;;24.65;51.59;99343.31;5112761;28;20048;-69
2023/08/02 01:07:39;;;;;;;3.63;2.05;;;;;;;24.63;51.70;99346.25;5112121;28;20040;-69
2023/08/02 01:10:12;;;;;;;3.28;2.13;;;;;;;24.62;51.52;99349.19;5112396;28;20055;-69
2023/08/02 01:12:47;;;;;;;3.35;1.92;;;;;;;24.62;51.67;99354.63;5112365;28;20082;-68
2023/08/02 01:15:17;;;;;;;4.80;2.30;;;;;;;24.61;51.59;99353.81;5112140;28;20048;-68
2023/08/02 01:17:51;;;;;;;4.13;2.03;;;;;;;24.60;51.61;99362.16;5112454;28;20044;-69
2023/08/02 01:20:21;;;;;;;3.80;2.40;;;;;;;24.60;51.47;99364.88;5112353;28;20115;-68
2023/08/02 01:22:49;;;;;;;3.95;2.08;;;;;;;24.59;51.43;99360.47;5112189;28;20126;-67
2023/08/02 01:25:18;;;;;;;4.30;2.33;;;;;;;24.58;51.60;99370.53;5093767;28;20044;-68
2023/08/02 01:27:50;;;;;;;3.20;2.10;;;;;;;24.57;51.47;99359.84;5112068;28;20040;-68
2023/08/02 01:30:25;;;;;;;3.53;2.15;;;;;;;24.54;51.60;99367.41;5112093;28;20051;-68
2023/08/02 01:32:56;;;;;;;3.63;2.15;;;;;;;24.55;51.78;99366.34;5112126;28;20054;-69
2023/08/02 01:35:27;;;;;;;3.72;2.35;;;;;;;24.54;51.37;99364.66;5112075;28;20051;-69
2023/08/02 01:37:55;;;;;;;3.80;2.33;;;;;;;24.51;51.68;99353.31;5111920;28;20059;-69
2023/08/02 01:40:23;;;;;;;4.28;2.10;;;;;;;24.53;51.73;99368.44;5111721;28;20043;-68
2023/08/02 01:42:51;;;;;;;4.13;2.45;;;;;;;24.52;51.66;99377.66;5111662;28;20044;-69
2023/08/02 01:45:20;;;;;;;3.47;2.05;;;;;;;24.50;51.59;99368.84;5111950;28;20051;-68
2023/08/02 01:47:48;;;;;;;3.83;2.25;;;;;;;24.51;51.79;99375.13;5112070;28;20122;-69
2023/08/02 01:50:17;;;;;;;3.90;2.30;;;;;;;24.51;51.87;99386.03;5111792;28;20048;-69
2023/08/02 01:52:49;;;;;;;3.95;2.47;;;;;;;24.50;51.61;99377.00;5111629;28;20043;-70
2023/08/02 01:55:18;;;;;;;3.90;2.27;;;;;;;24.49;51.92;99378.06;5112085;28;20494;-70
2023/08/02 01:57:48;;;;;;;4.38;2.40;;;;;;;24.49;51.68;99377.22;5111968;28;20241;-69
2023/08/02 02:00:17;;;;;;;4.65;2.38;;;;;;;24.49;51.75;99382.66;5111860;28;20082;-69
2023/08/02 02:02:45;;;;;;;4.57;2.50;;;;;;;24.47;52.04;99385.59;5111666;28;20047;-69
2023/08/02 02:05:13;;;;;;;4.15;2.60;;;;;;;24.46;51.57;99378.47;5111683;28;20039;-70
2023/08/02 02:07:41;;;;;;;3.70;2.30;;;;;;;24.46;51.83;99381.19;5111748;28;20055;-69
2023/08/02 02:10:11;;;;;;;4.90;2.25;;;;;;;24.45;51.78;99392.31;5111710;28;20124;-69
2023/08/02 02:12:39;;;;;;;4.00;2.20;;;;;;;24.45;52.08;99392.31;5111655;28;20046;-69
2023/08/02 02:15:08;;;;;;;3.88;2.25;;;;;;;24.44;51.90;99386.00;5111591;28;20055;-69
2023/08/02 02:17:36;;;;;;;3.75;2.30;;;;;;;24.43;52.06;99384.34;5111575;28;20444;-69
2023/08/02 02:20:06;;;;;;;3.83;2.38;;;;;;;24.43;51.54;99389.78;5115031;28;20048;-69
2023/08/02 02:22:34;;;;;;;4.43;2.35;;;;;;;24.41;52.07;99377.38;5115532;28;20047;-69
2023/08/02 02:25:02;;;;;;;4.10;2.45;;;;;;;24.41;51.96;99386.41;5115620;28;20134;-69
2023/08/02 02:27:32;;;;;;;3.40;2.03;;;;;;;24.40;52.21;99384.72;5115552;28;20051;-69
2023/08/02 02:30:00;;;;;;;3.83;2.50;;;;;;;24.39;52.31;99380.31;5115747;28;20051;-69
2023/08/02 02:32:28;;;;;;;3.78;2.40;;;;;;;24.38;51.98;99385.97;5115396;28;20484;-69
2023/08/02 02:35:00;;;;;;;3.50;2.20;;;;;;;24.37;52.09;99384.28;5115756;28;20047;-69
2023/08/02 02:37:28;;;;;;;3.92;2.45;;;;;;;24.36;52.13;99382.63;5115426;28;20048;-69
2023/08/02 02:39:56;;;;;;;4.32;2.50;;;;;;;24.36;52.26;99394.34;5115406;28;20457;-69
2023/08/02 02:42:24;;;;;;;4.03;2.45;;;;;;;24.35;51.92;99398.13;5115244;28;20063;-69
2023/08/02 02:44:54;;;;;;;4.60;2.20;;;;;;;24.33;51.98;99397.50;5115195;28;20051;-70
2023/08/02 02:47:23;;;;;;;4.03;2.55;;;;;;;24.32;52.09;99395.81;5115088;28;20078;-69
2023/08/02 02:49:53;;;;;;;3.83;2.40;;;;;;;24.33;52.07;99391.22;5115063;28;20047;-69
2023/08/02 02:52:22;;;;;;;3.53;2.20;;;;;;;24.33;51.91;99388.47;5115023;28;20400;-70
2023/08/02 02:54:50;;;;;;;3.85;2.40;;;;;;;24.31;52.26;99399.56;5114997;28;20051;-69
2023/08/02 02:57:19;;;;;;;4.55;2.75;;;;;;;24.30;52.18;99402.47;5114946;28;20511;-70
2023/08/02 02:59:47;;;;;;;4.65;2.40;;;;;;;24.30;52.16;99410.63;5115484;28;20052;-70
2023/08/02 03:02:17;;;;;;;4.82;2.38;;;;;;;24.30;52.00;99410.63;5115044;28;20043;-70
2023/08/02 03:04:45;;;;;;;3.85;2.30;;;;;;;24.27;52.02;99417.34;5114874;28;20059;-69
2023/08/02 03:07:19;;;;;;;3.85;2.38;;;;;;;24.26;52.23;99411.03;5114794;28;20051;-69
2023/08/02 03:09:47;;;;;;;4.18;2.42;;;;;;;24.26;52.11;99424.66;5102798;28;20055;-73
2023/08/02 03:12:15;;;;;;;5.22;2.80;;;;;;;24.25;52.12;99419.41;5091873;28;20064;-68
2023/08/02 03:14:43;;;;;;;4.82;2.53;;;;;;;24.26;52.16;99432.00;5093942;28;20079;-69
2023/08/02 03:17:11;;;;;;;4.60;2.65;;;;;;;24.25;52.20;99424.88;5092877;28;20039;-69
2023/08/02 03:19:44;;;;;;;3.83;2.33;;;;;;;24.22;52.15;99430.69;5091738;28;20044;-69
2023/08/02 03:22:12;;;;;;;4.43;2.30;;;;;;;24.22;52.22;99425.25;5093897;28;20097;-68
2023/08/02 03:24:40;;;;;;;4.50;2.40;;;;;;;24.22;52.19;99431.56;5094061;28;20052;-68
2023/08/02 03:27:09;;;;;;;3.95;2.40;;;;;;;24.21;52.03;99435.31;5093968;28;20516;-69
2023/08/02 03:29:37;;;;;;;4.55;2.67;;;;;;;24.20;52.35;99433.63;5093762;28;20058;-70
2023/08/02 03:32:06;;;;;;;3.95;2.20;;;;;;;24.20;52.29;99439.09;5094042;28;20048;-67
2023/08/02 03:34:35;;;;;;;4.28;2.55;;;;;;;24.19;52.09;99437.41;5094009;28;20121;-68
2023/08/02 03:37:08;;;;;;;4.38;2.53;;;;;;;24.19;52.15;99452.91;5093895;28;20074;-68
2023/08/02 03:39:36;;;;;;;3.55;2.30;;;;;;;24.19;52.11;99458.34;5093725;28;20058;-67
2023/08/02 03:42:05;;;;;;;3.70;2.38;;;;;;;24.17;52.22;99461.28;5093707;28;20549;-68
2023/08/02 03:44:33;;;;;;;3.78;2.38;;;;;;;24.15;52.53;99467.97;5093889;28;20165;-67
2023/08/02 03:47:01;;;;;;;3.53;2.15;;;;;;;24.15;52.06;99468.81;5093626;28;20386;-67
2023/08/02 03:49:29;;;;;;;3.72;2.25;;;;;;;24.16;52.31;99469.66;5093680;28;20052;-67
2023/08/02 03:51:57;;;;;;;4.30;2.60;;;;;;;24.14;52.38;99466.31;5093439;28;20040;-68
2023/08/02 03:54:27;;;;;;;3.92;2.20;;;;;;;24.14;52.24;99460.84;5093443;28;20047;-69
2023/08/02 03:56:55;;;;;;;4.15;2.40;;;;;;;24.12;51.94;99463.75;5093575;28;20048;-69
2023/08/02 03:59:23;;;;;;;3.88;2.22;;;;;;;24.13;52.19;99459.16;5093397;28;20050;-68
2023/08/02 04:01:52;;;;;;;3.53;2.00;;;;;;;24.12;51.96;99457.47;5093290;28;20401;-69
2023/08/02 04:04:21;;;;;;;3.53;2.45;;;;;;;24.12;52.26;99457.47;5093106;28;20044;-67
2023/08/02 04:06:49;;;;;;;4.88;2.47;;;;;;;24.11;52.24;99455.78;5093443;28;20121;-68
2023/08/02 04:09:18;;;;;;;3.22;2.10;;;;;;;24.10;51.99;99468.56;5093003;28;20048;-69
2023/08/02 04:11:48;;;;;;;3.40;1.90;;;;;;;24.09;51.95;99463.31;5092994;28;20048;-67
2023/08/02 04:14:16;;;;;;;5.13;2.40;;;;;;;24.09;52.05;99453.25;5093077;28;20139;-67
2023/08/02 04:16:44;;;;;;;3.90;2.45;;;;;;;24.09;52.17;99468.75;5092994;28;20051;-67
2023/08/02 04:19:13;;;;;;;3.67;2.20;;;;;;;24.09;52.13;99457.88;5075222;28;20076;-67
2023/08/02 04:21:42;;;;;;;4.45;2.38;;;;;;;24.08;52.10;99456.19;5093202;28;20114;-67
2023/08/02 04:24:10;;;;;;;4.65;2.65;;;;;;;24.08;51.94;99458.91;5093040;28;20055;-67
2023/08/02 04:26:38;;;;;;;4.65;2.58;;;;;;;24.07;51.89;99460.78;5092842;28;20119;-68
2023/08/02 04:29:08;;;;;;;3.53;2.10;;;;;;;24.07;51.93;99459.97;5092714;28;20048;-68
2023/08/02 04:31:36;;;;;;;3.92;2.20;;;;;;;24.07;51.91;99462.69;5092582;28;20048;-67
2023/08/02 04:34:07;;;;;;;4.20;2.20;;;;;;;24.06;51.90;99466.44;5092584;28;20044;-68
2023/08/02 04:36:35;;;;;;;3.80;2.30;;;;;;;24.06;51.97;99474.63;5092595;28;20146;-69
2023/08/02 04:39:06;;;;;;;4.70;2.50;;;;;;;24.04;51.86;99480.28;5074640;28;20051;-69
2023/08/02 04:41:35;;;;;;;3.92;2.13;;;;;;;24.06;51.92;99480.06;5091706;28;20056;-69
2023/08/02 04:44:03;;;;;;;3.83;2.17;;;;;;;24.05;51.73;99483.84;5092401;28;20135;-69
2023/08/02 04:46:33;;;;;;;3.63;2.40;;;;;;;24.04;51.90;99473.97;5092177;28;20052;-69
2023/08/02 04:49:01;;;;;;;3.50;2.20;;;;;;;24.04;51.94;99473.97;5092265;28;20040;-68
2023/08/02 04:51:31;;;;;;;4.57;2.20;;;;;;;24.03;52.02;99475.00;5092317;28;20052;-70
2023/08/02 04:53:59;;;;;;;3.58;1.95;;;;;;;24.02;51.94;99462.41;5092294;28;20048;-69
2023/08/02 04:56:27;;;;;;;3.67;2.20;;;;;;;24.03;51.83;99475.00;5092263;28;20064;-69
2023/08/02 04:58:55;;;;;;;4.30;2.10;;;;;;;24.02;51.97;99463.25;5092061;28;20520;-68
2023/08/02 05:01:24;;;;;;;4.00;2.45;;;;;;;24.02;52.04;99476.03;5092291;28;20055;-69
2023/08/02 05:03:53;;;;;;;3.75;2.28;;;;;;;24.02;52.22;99481.47;5092295;28;20044;-70
2023/08/02 05:06:22;;;;;;;3.95;2.47;;;;;;;24.01;52.28;99474.34;5074218;28;20093;-69
2023/08/02 05:08:50;;;;;;;3.38;2.10;;;;;;;23.99;51.93;99480.84;5091963;28;20128;-70
2023/08/02 05:11:19;;;;;;;3.33;2.05;;;;;;;24.02;52.09;99474.16;5091667;28;20059;-68
2023/08/02 05:13:47;;;;;;;3.80;2.13;;;;;;;24.01;52.10;99474.34;5091776;28;20469;-68
2023/08/02 05:16:15;;;;;;;3.67;1.90;;;;;;;24.01;52.10;99477.06;5091960;28;20044;-68
2023/08/02 05:18:43;;;;;;;4.10;2.13;;;;;;;24.02;52.13;99484.22;5091761;28;20150;-68
2023/08/02 05:21:18;;;;;;;3.80;2.10;;;;;;;24.01;52.37;99482.53;5091934;28;20127;-69
2023/08/02 05:23:46;;;;;;;3.80;2.40;;;;;;;24.01;52.13;99482.53;5091635;28;20127;-68
2023/08/02 05:26:15;;;;;;;3.75;2.40;;;;;;;23.99;52.33;99480.84;5091516;28;20062;-68
2023/08/02 05:28:43;;;;;;;3.97;2.10;;;;;;;24.01;52.24;99472.47;5091933;28;20044;-68
2023/08/02 05:31:12;;;;;;;4.00;2.35;;;;;;;23.99;52.63;99480.84;5091764;28;20052;-68
2023/08/02 05:33:41;;;;;;;4.05;2.30;;;;;;;24.01;52.27;99471.63;5091769;28;20043;-68
2023/08/02 05:36:12;;;;;;;3.20;2.22;;;;;;;24.01;52.50;99477.91;5091571;28;20097;-68
2023/08/02 05:38:43;;;;;;;3.63;2.55;;;;;;;23.99;52.41;99477.28;5073968;28;20126;-68
2023/08/02 05:41:11;;;;;;;3.67;2.17;;;;;;;23.99;52.29;99478.13;5091815;28;20054;-68
2023/08/02 05:43:42;;;;;;;3.25;2.05;;;;;;;23.98;52.11;99479.16;5091877;28;20131;-67
2023/08/02 05:46:11;;;;;;;3.90;2.30;;;;;;;23.99;52.25;99485.44;5091472;28;20047;-67
2023/08/02 05:48:39;;;;;;;3.80;2.13;;;;;;;23.99;52.22;99491.75;5091477;28;20394;-68
2023/08/02 05:51:07;;;;;;;3.47;2.30;;;;;;;23.99;52.01;99489.03;5091300;28;20097;-67
2023/08/02 05:53:35;;;;;;;4.50;2.35;;;;;;;23.99;52.45;99494.47;5091331;28;20608;-68
2023/08/02 05:56:05;;;;;;;3.55;2.22;;;;;;;23.99;52.43;99490.91;5091528;28;20142;-68
2023/08/02 05:58:34;;;;;;;4.28;2.63;;;;;;;23.98;52.41;99490.06;5096840;28;20048;-68
2023/08/02 06:01:02;;;;;;;3.70;2.42;;;;;;;23.98;52.74;99495.50;5091268;28;20438;-68
2023/08/02 06:03:34;;;;;;;3.80;2.40;;;;;;;24.00;52.78;99498.03;5073774;28;20048;-68
2023/08/02 06:06:02;;;;;;;3.90;2.72;;;;;;;23.99;53.00;99505.34;5091415;28;20048;-67
2023/08/02 06:08:30;;;;;;;3.80;2.30;;;;;;;24.01;52.86;99486.09;5091182;28;20493;-67
2023/08/02 06:11:01;;;;;;;4.97;2.67;;;;;;;24.02;53.10;99497.81;5091191;28;20048;-68
2023/08/02 06:13:33;;;;;;;4.25;2.60;;;;;;;24.01;52.82;99505.16;5091407;28;20044;-67
2023/08/02 06:16:01;;;;;;;3.50;2.40;;;;;;;24.01;52.85;99504.31;5091329;28;20067;-67
2023/08/02 06:18:29;;;;;;;3.97;2.55;;;;;;;24.01;53.06;99507.03;5091024;28;20120;-68
2023/08/02 06:20:57;;;;;;;4.30;2.67;;;;;;;24.01;53.12;99509.75;5091304;28;20075;-68
2023/08/02 06:23:26;;;;;;;4.47;2.70;;;;;;;24.01;52.96;99509.75;5091405;28;20131;-68
2023/08/02 06:25:54;;;;;;;4.30;2.80;;;;;;;24.01;52.90;99515.22;5091090;28;20055;-68
2023/08/02 06:28:23;;;;;;;3.80;2.60;;;;;;;24.02;53.08;99516.91;5091015;28;20048;-68
2023/08/02 06:30:52;;;;;;;3.90;2.50;;;;;;;24.02;52.88;99514.16;5090815;28;20050;-68
2023/08/02 06:33:21;;;;;;;4.75;2.67;;;;;;;24.02;52.94;99517.72;5091271;28;20052;-68
2023/08/02 06:35:49;;;;;;;4.10;2.60;;;;;;;24.03;53.05;99524.03;5091183;28;20040;-68
2023/08/02 06:38:17;;;;;;;4.72;2.72;;;;;;;24.04;53.26;99531.19;5091089;28;20456;-68
2023/08/02 06:40:45;;;;;;;4.43;2.80;;;;;;;24.04;53.09;99531.19;5090901;28;20507;-68
2023/08/02 06:43:13;;;;;;;3.78;2.63;;;;;;;24.04;52.94;99533.91;5090941;28;20139;-68
2023/08/02 06:45:45;;;;;;;3.90;2.88;;;;;;;24.03;53.37;99540.38;5090952;28;20052;-68
2023/08/02 06:48:19;;;;;;;4.70;2.57;;;;;;;24.05;53.16;99541.03;5091080;28;20079;-68
2023/08/02 06:50:49;;;;;;;4.10;2.70;;;;;;;24.02;52.97;99530.50;5090746;28;20288;-68
2023/08/02 06:53:19;;;;;;;4.20;2.60;;;;;;;24.04;52.68;99536.63;5090967;28;20197;-69
2023/08/02 06:55:47;;;;;;;4.03;2.55;;;;;;;24.05;53.20;99543.75;5090710;28;20048;-68
2023/08/02 06:58:16;;;;;;;5.28;2.72;;;;;;;24.05;52.95;99539.16;5090709;28;20612;-68
2023/08/02 07:00:44;;;;;;;4.45;2.92;;;;;;;24.05;53.48;99521.97;5090863;28;20413;-68
2023/08/02 07:03:17;;;;;;;4.25;3.03;;;;;;;24.07;53.61;99519.88;5090654;28;20481;-69
2023/08/02 07:05:45;;;;;;;4.82;3.38;;;;;;;24.07;53.30;99520.72;5093486;28;20093;-68
2023/08/02 07:08:14;;;;;;;4.60;2.90;;;;;;;24.06;53.10;99529.09;5094289;28;20455;-68
2023/08/02 07:10:42;;;;;;;4.25;2.72;;;;;;;24.07;52.89;99519.88;5076183;28;20131;-68
2023/08/02 07:13:10;;;;;;;4.20;2.90;;;;;;;24.06;53.02;99529.09;5094639;28;20131;-68
2023/08/02 07:15:38;;;;;;;4.18;2.72;;;;;;;24.06;53.20;99535.38;5094154;28;20040;-66
2023/08/02 07:18:06;;;;;;;5.28;2.50;;;;;;;24.08;53.08;99537.91;5094086;28;20059;-66
2023/08/02 07:20:37;;;;;;;3.80;2.65;;;;;;;24.06;53.00;99537.28;5076031;28;20094;-68
2023/08/02 07:23:05;;;;;;;3.35;2.40;;;;;;;24.08;52.93;99537.91;5093793;28;20040;-66
2023/08/02 07:25:33;;;;;;;4.20;2.95;;;;;;;24.13;53.57;99535.44;5093842;28;20480;-63
2023/08/02 07:28:02;;;;;;;6.93;3.53;;;;;;;24.16;54.17;99535.06;5093937;28;20101;-66
2023/08/02 07:30:30;;;;;;;6.45;3.70;;;;;;;24.16;54.40;99540.50;5093898;28;20079;-66
2023/08/02 07:32:58;;;;;;;4.40;3.28;;;;;;;24.15;54.32;99533.38;5093659;28;20123;-66
2023/08/02 07:35:26;;;;;;;5.40;3.30;;;;;;;24.14;54.72;99542.59;5093693;28;20052;-66
2023/08/02 07:37:56;;;;;;;6.82;3.63;;;;;;;24.13;54.74;99538.19;5093815;28;20142;-66
2023/08/02 07:40:25;;;;;;;5.63;2.80;;;;;;;24.12;54.74;99534.59;5093651;28;20040;-67
2023/08/02 07:42:55;;;;;;;6.50;3.60;;;;;;;24.14;55.26;99532.53;5093611;28;20044;-69
2023/08/02 07:45:23;;;;;;;5.05;3.30;;;;;;;24.17;54.93;99536.72;5093490;28;20051;-69
2023/08/02 07:47:51;;;;;;;5.70;3.38;;;;;;;24.17;54.93;99536.72;5093368;28;20052;-74
2023/08/02 07:50:19;;;;;;;6.00;3.10;;;;;;;24.16;55.06;99541.34;5093322;28;20080;-69
2023/08/02 07:52:50;;;;;;;7.38;3.42;;;;;;;24.17;55.08;99542.19;5093757;28;20044;-66
2023/08/02 07:55:20;;;;;;;4.75;3.08;;;;;;;24.18;55.14;99543.88;5096412;28;20055;-67
2023/08/02 07:57:48;;;;;;;6.15;3.20;;;;;;;24.15;55.18;99541.53;5093496;28;20110;-69
2023/08/02 08:00:16;;;;;;;5.43;2.95;;;;;;;24.16;54.72;99540.50;5092919;28;20561;-69
2023/08/02 08:02:44;;;;;;;6.72;2.83;;;;;;;24.16;55.02;99549.50;5074110;28;20044;-69
2023/08/02 08:05:13;;;;;;;4.72;2.90;;;;;;;24.17;55.15;99550.34;5092495;28;20493;-69
2023/08/02 08:07:41;;;;;;;5.82;3.20;;;;;;;24.18;55.22;99544.69;5092387;28;20048;-69
2023/08/02 08:10:09;;;;;;;5.45;2.90;;;;;;;24.18;54.98;99546.59;5092469;28;20056;-69
2023/08/02 08:12:39;;;;;;;3.88;2.47;;;;;;;24.18;55.24;99543.88;5092971;28;20056;-69
2023/08/02 08:15:08;;;;;;;4.15;2.63;;;;;;;24.19;55.32;99542.81;5092872;28;20508;-69
2023/08/02 08:17:36;;;;;;;4.75;2.75;;;;;;;24.21;55.56;99527.09;5091803;28;20040;-69
2023/08/02 08:20:06;;;;;;;6.00;2.70;;;;;;;24.21;55.32;99529.84;5092979;28;20138;-70
2023/08/02 08:22:34;;;;;;;4.40;2.40;;;;;;;24.21;55.45;99527.94;5092981;28;20075;-69
2023/08/02 08:25:03;;;;;;;3.80;2.28;;;;;;;24.21;55.31;99532.56;5092779;28;20040;-69
2023/08/02 08:27:32;;;;;;;4.55;2.50;;;;;;;24.22;55.20;99528.78;5092409;28;20052;-69
2023/08/02 08:30:04;;;;;;;5.05;2.35;;;;;;;24.24;55.05;99534.91;5092999;28;20127;-69
2023/08/02 08:32:32;;;;;;;5.20;2.47;;;;;;;24.22;55.09;99529.66;5092651;28;20044;-69
2023/08/02 08:35:01;;;;;;;3.63;2.22;;;;;;;24.24;55.07;99535.75;5092745;28;20059;-69
2023/08/02 08:37:29;;;;;;;3.72;2.20;;;;;;;24.25;54.48;99531.16;5092457;28;20105;-69
2023/08/02 08:39:59;;;;;;;4.93;2.33;;;;;;;24.26;54.78;99541.00;5092628;28;20157;-69
2023/08/02 08:42:35;;;;;;;3.65;2.20;;;;;;;24.27;54.78;99537.22;5074024;28;20040;-69
2023/08/02 08:45:05;;;;;;;3.70;2.10;;;;;;;24.28;54.70;99538.91;5092317;28;20048;-69
2023/08/02 08:47:35;;;;;;;3.67;2.08;;;;;;;24.28;54.51;99533.47;5092096;28;20071;-70
2023/08/02 08:50:05;;;;;;;4.35;1.92;;;;;;;24.27;54.08;99538.06;5092402;28;20048;-70
2023/08/02 08:52:36;;;;;;;3.78;1.90;;;;;;;24.29;53.79;99551.50;5092181;28;20417;-70
2023/08/02 08:55:08;;;;;;;4.85;1.80;;;;;;;24.30;53.57;99547.72;5092298;28;20079;-70
2023/08/02 08:57:37;;;;;;;3.13;1.90;;;;;;;24.28;53.57;99547.94;5092082;28;20120;-70
2023/08/02 09:00:10;;;;;;;3.22;1.70;;;;;;;24.31;53.06;99548.56;5092065;28;20131;-69
2023/08/02 09:02:39;;;;;;;3.70;1.70;;;;;;;24.31;52.56;99546.72;5092015;28;20423;-68
2023/08/02 09:05:09;;;;;;;5.00;1.98;;;;;;;24.31;52.44;99538.53;5091990;28;20044;-70
2023/08/02 09:07:37;;;;;;;3.17;1.70;;;;;;;24.31;52.47;99533.09;5091627;28;20044;-70
2023/08/02 09:10:07;;;;;;;4.18;1.70;;;;;;;24.33;52.29;99538.38;5091749;28;20086;-70
2023/08/02 09:12:45;;;;;;;2.83;1.30;;;;;;;24.33;52.67;99527.47;5091893;28;20491;-69
2023/08/02 09:15:16;;;;;;;3.15;1.80;;;;;;;24.35;52.66;99531.66;5091957;28;20048;-68
2023/08/02 09:17:49;;;;;;;5.68;1.77;;;;;;;24.35;52.73;99528.94;5091854;28;20083;-68
2023/08/02 09:20:19;;;;;;;3.83;1.80;;;;;;;24.37;52.10;99532.31;5091746;28;20097;-69
2023/08/02 09:22:48;;;;;;;1.88;1.38;;;;;;;24.38;52.51;99531.25;5091887;28;20051;-69
2023/08/02 09:25:25;;;;;;;4.78;1.60;;;;;;;24.39;52.54;99519.31;5091618;28;20140;-70
2023/08/02 09:27:58;;;;;;;4.00;1.70;;;;;;;24.38;52.48;99528.53;5091129;28;20048;-69
2023/08/02 09:30:29;;;;;;;4.38;1.70;;;;;;;24.42;52.27;99534.44;5091516;28;20417;-69
2023/08/02 09:33:02;;;;;;;3.88;1.88;;;;;;;24.42;52.17;99538.03;5091585;28;20044;-70
2023/08/02 09:35:48;;;;;;;3.13;1.60;;;;;;;24.41;51.36;99525.41;5091625;28;20121;-70
2023/08/02 09:38:17;;;;;;;6.40;1.85;;;;;;;24.42;50.88;99524.38;5091568;28;20044;-70
2023/08/02 09:40:47;;;;;;;2.70;1.40;;;;;;;24.42;51.54;99524.38;5091524;28;20048;-70
2023/08/02 09:43:35;;;;;;;3.88;1.52;;;;;;;24.44;51.54;99522.31;5091768;28;20376;-70
2023/08/02 09:46:23;;;;;;;3.15;1.83;;;;;;;24.45;51.67;99526.72;5091503;28;20485;-70
2023/08/02 09:48:52;;;;;;;2.88;1.58;;;;;;;24.46;51.43;99520.22;5091447;28;20052;-70
2023/08/02 09:51:20;;;;;;;3.55;1.88;;;;;;;24.47;50.65;99531.97;5091459;28;20409;-70
2023/08/02 09:53:55;;;;;;;4.55;1.90;;;;;;;24.46;50.61;99520.22;5091318;28;20048;-70
2023/08/02 09:56:24;;;;;;;2.22;1.52;;;;;;;24.47;50.40;99513.72;5091519;28;20491;-70
2023/08/02 09:58:55;;;;;;;3.35;1.65;;;;;;;24.48;50.45;99512.66;5091271;28;20044;-70
2023/08/02 10:01:26;;;;;;;4.32;1.50;;;;;;;24.49;50.90;99524.41;5073564;28;20084;-70
2023/08/02 10:03:58;;;;;;;4.35;1.65;;;;;;;24.50;50.58;99526.94;5091183;28;20044;-70
2023/08/02 10:06:31;;;;;;;3.97;1.50;;;;;;;24.54;50.98;99530.97;5091203;28;20052;-70
2023/08/02 10:09:02;;;;;;;3.25;1.70;;;;;;;24.58;50.98;99522.38;5091263;28;20075;-70
2023/08/02 10:11:33;;;;;;;3.90;1.63;;;;;;;24.61;51.24;99521.97;5091373;28;20055;-71
2023/08/02 10:14:03;;;;;;;2.45;1.60;;;;;;;24.62;51.33;99510.88;5091484;28;20044;-63
2023/08/02 10:16:32;;;;;;;2.85;1.40;;;;;;;24.65;51.49;99517.81;5091023;28;20044;-68
2023/08/02 10:19:02;;;;;;;3.40;1.50;;;;;;;24.66;51.00;99516.75;5091316;28;20060;-68
2023/08/02 10:21:31;;;;;;;3.58;1.50;;;;;;;24.72;50.88;99524.16;5091242;28;20040;-67
2023/08/02 10:24:00;;;;;;;2.78;1.70;;;;;;;24.74;50.98;99505.69;5090916;28;20087;-72
2023/08/02 10:26:29;;;;;;;3.10;1.50;;;;;;;24.74;50.54;99514.72;5091070;28;20710;-70
2023/08/02 10:28:58;;;;;;;2.85;1.30;;;;;;;24.75;50.47;99507.38;5090859;28;20398;-70
2023/08/02 10:31:26;;;;;;;2.70;1.40;;;;;;;24.79;50.20;99511.38;5090837;28;20047;-69
2023/08/02 10:33:56;;;;;;;3.38;1.50;;;;;;;24.83;50.15;99507.22;5091153;28;20052;-69
2023/08/02 10:36:24;;;;;;;2.92;1.35;;;;;;;24.87;49.72;99497.56;5090787;28;20489;-69
2023/08/02 10:38:54;;;;;;;3.38;1.63;;;;;;;24.91;49.48;99507.06;5090927;28;20052;-69
2023/08/02 10:41:25;;;;;;;3.22;1.52;;;;;;;24.95;49.99;99511.03;5094703;28;20064;-67
2023/08/02 10:44:13;;;;;;;2.45;1.50;;;;;;;25.00;49.51;99507.72;5094699;28;20040;-68
2023/08/02 10:46:42;;;;;;;3.10;1.30;;;;;;;25.03;49.18;99494.53;5094863;28;20078;-73
2023/08/02 10:49:41;;;;;;;2.47;1.30;;;;;;;25.08;49.45;99499.38;5094712;28;20139;-68
2023/08/02 10:52:26;;;;;;;4.20;1.80;;;;;;;25.09;49.44;99482.81;5094448;28;20052;-67
2023/08/02 10:55:12;;;;;;;3.08;1.63;;;;;;;25.10;49.50;99489.94;5093824;28;20055;-67
2023/08/02 10:57:41;;;;;;;3.65;1.50;;;;;;;25.15;49.31;99483.03;5093481;28;20036;-68
2023/08/02 11:00:17;;;;;;;2.30;1.30;;;;;;;25.15;49.48;99485.75;5094166;28;20427;-67
2023/08/02 11:02:48;;;;;;;2.25;1.30;;;;;;;25.17;49.53;99478.19;5094236;28;20058;-67
2023/08/02 11:05:37;;;;;;;2.30;1.40;;;;;;;25.19;49.37;99484.28;5094399;28;20047;-67
2023/08/02 11:08:07;;;;;;;2.60;1.55;;;;;;;25.21;49.56;99479.50;5094170;28;20044;-67
2023/08/02 11:10:47;;;;;;;3.75;1.50;;;;;;;25.22;49.61;99479.28;5093961;28;20056;-67
2023/08/02 11:13:16;;;;;;;3.78;1.55;;;;;;;25.24;49.71;99477.19;5093971;28;20054;-67
2023/08/02 11:15:44;;;;;;;3.42;1.48;;;;;;;25.25;49.63;99469.84;5094214;28;20134;-67
2023/08/02 11:18:15;;;;;;;4.18;1.65;;;;;;;25.26;49.28;99466.88;5094416;28;20048;-67
2023/08/02 11:21:16;;;;;;;2.58;1.38;;;;;;;25.32;49.24;99476.16;5094094;28;20127;-67
2023/08/02 11:23:49;;;;;;;3.47;1.52;;;;;;;25.37;48.92;99468.16;5094433;28;20469;-67
2023/08/02 11:26:20;;;;;;;2.30;1.20;;;;;;;25.40;49.22;99451.41;5094231;28;20055;-67
2023/08/02 11:28:49;;;;;;;3.28;1.58;;;;;;;25.40;49.20;99451.41;5093980;28;20144;-67
2023/08/02 11:31:18;;;;;;;2.50;1.30;;;;;;;25.45;49.46;99448.88;5094010;28;20112;-67
2023/08/02 11:33:46;;;;;;;3.97;1.38;;;;;;;25.46;49.48;99445.09;5093886;28;20048;-67
2023/08/02 11:36:16;;;;;;;2.03;1.27;;;;;;;25.49;49.13;99438.41;5093766;28;20047;-67
2023/08/02 11:38:44;;;;;;;4.30;1.80;;;;;;;25.52;49.38;99440.69;5093855;28;20455;-67
2023/08/02 11:41:18;;;;;;;2.88;1.35;;;;;;;25.55;49.56;99434.81;5093721;28;20051;-67
2023/08/02 11:43:47;;;;;;;;;;;;;;;25.55;49.51;99430.19;5094076;28;20044;-66
2023/08/02 11:46:17;;;;;;;2.63;1.30;;;;;;;25.55;49.62;99432.94;5093679;28;20384;-67